Springdale, Nebraska
Current Conditions -  °F | °C
As of 11:53 PM on Wednesday 26 Nov 2014 (Local Time) from KODX Reporting Station
Few Clouds Few Clouds  
Wind Chill: 17°   Ceiling: Unl
Heat Index: 17°   Visibility: 10mi
Dew Point: 13°   Wind: 0mph
Humidity: 84%   Direction: NA
Pressure: 30.42"   Gusts: NA
Location:  41.579°N, 98.9733°W
Report Text: KODX 270553Z AUTO 00000KT 10SM FEW110 M08/M11 A3042 RMK AO2 SLP336 T10831106 11039 21111 400281111 51008
Loading
Personal Weather Stations






























Interactive Weather Map New forecast layout! Learn more

10-Day Weather Forecast

Advertisements
Track Severe Weather on mobile